Time;durP1;ratioP1;P1;durP2;ratioP2;P2;SDS_P1;SDS_P2;PMS_P1;PMS_P2;Temp;Humidity;BMP_temperature;BMP_pressure;BME280_temperature;BME280_humidity;BME280_pressure;Samples;Min_cycle;Max_cycle;Signal;HPM_P1;HPM_P2
2023/12/05 00:01:39;;;;;;;23.00;13.63;;;;;;;-5.24;100.00;101509.16;5093790;28;20039;-66
2023/12/05 00:04:06;;;;;;;26.50;15.47;;;;;;;-5.63;100.00;101475.66;5111946;28;20060;-66
2023/12/05 00:06:32;;;;;;;24.25;13.95;;;;;;;-5.57;100.00;101485.84;5115290;28;20558;-67
2023/12/05 00:08:57;;;;;;;25.53;12.70;;;;;;;-5.49;100.00;101530.63;5115027;28;20039;-64
2023/12/05 00:11:23;;;;;;;26.60;13.97;;;;;;;-5.87;100.00;101486.69;5114633;28;20035;-63
2023/12/05 00:13:49;;;;;;;23.67;12.87;;;;;;;-5.59;100.00;101521.38;5114942;28;20039;-64
2023/12/05 00:16:14;;;;;;;22.43;11.97;;;;;;;-5.52;100.00;101514.28;5114404;28;20426;-65
2023/12/05 00:18:44;;;;;;;19.50;10.27;;;;;;;-5.44;100.00;101513.19;5118092;28;20027;-64
2023/12/05 00:21:09;;;;;;;26.08;14.05;;;;;;;-5.35;100.00;101518.13;5116386;28;20046;-66
2023/12/05 00:23:35;;;;;;;20.83;11.80;;;;;;;-5.95;100.00;101430.72;5097710;28;20474;-65
2023/12/05 00:26:00;;;;;;;21.57;12.10;;;;;;;-5.37;100.00;101522.50;5114585;28;20039;-68
2023/12/05 00:28:26;;;;;;;20.53;11.87;;;;;;;-5.90;100.00;101440.97;5114402;28;20043;-66
2023/12/05 00:30:51;;;;;;;20.40;11.63;;;;;;;-5.68;100.00;101478.38;5115664;28;20039;-66
2023/12/05 00:33:17;;;;;;;24.03;13.80;;;;;;;-5.85;100.00;101454.63;5114549;28;20062;-65
2023/12/05 00:35:43;;;;;;;24.93;12.93;;;;;;;-5.42;100.00;101515.75;5097675;28;20627;-69
2023/12/05 00:38:08;;;;;;;26.63;15.23;;;;;;;-5.57;100.00;101485.00;5097430;28;20042;-67
2023/12/05 00:40:34;;;;;;;25.03;14.73;;;;;;;-5.44;100.00;101504.56;5114595;28;20036;-66
2023/12/05 00:43:00;;;;;;;22.80;12.73;;;;;;;-5.49;100.00;101498.63;5096876;28;20031;-66
2023/12/05 00:45:25;;;;;;;20.50;12.97;;;;;;;-5.48;100.00;101516.78;5114061;28;20129;-65
2023/12/05 00:47:51;;;;;;;23.10;12.23;;;;;;;-5.53;100.00;101508.22;5113927;28;20384;-69
2023/12/05 00:50:17;;;;;;;25.53;13.77;;;;;;;-5.90;100.00;101450.50;5115480;28;20035;-67
2023/12/05 00:52:43;;;;;;;20.33;12.32;;;;;;;-5.64;100.00;101484.34;5097523;28;20582;-65
2023/12/05 00:55:09;;;;;;;25.60;14.07;;;;;;;-5.21;100.00;101558.41;5114708;28;20123;-65
2023/12/05 00:57:34;;;;;;;20.87;11.87;;;;;;;-5.45;100.00;101508.03;5114477;28;20632;-65
2023/12/05 01:00:00;;;;;;;27.57;14.47;;;;;;;-5.15;100.00;101555.66;5096759;28;20037;-63
2023/12/05 01:02:26;;;;;;;23.30;14.43;;;;;;;-5.41;100.00;101497.53;5113564;28;20035;-65
2023/12/05 01:04:54;;;;;;;26.77;14.07;;;;;;;-5.17;100.00;101553.09;5113464;28;20051;-65
2023/12/05 01:07:20;;;;;;;26.75;14.25;;;;;;;-5.70;100.00;101474.97;5114561;28;20067;-65
2023/12/05 01:09:47;;;;;;;23.88;12.90;;;;;;;-5.53;100.00;101508.22;5096387;28;20042;-64
2023/12/05 01:12:13;;;;;;;24.33;13.55;;;;;;;-5.37;100.00;101526.84;5113045;28;20517;-66
2023/12/05 01:14:39;;;;;;;25.80;13.43;;;;;;;-5.64;100.00;101487.78;5113396;28;20035;-66
2023/12/05 01:17:05;;;;;;;23.90;13.13;;;;;;;-5.40;100.00;101527.78;5112075;28;20129;-65
2023/12/05 01:19:31;;;;;;;22.97;13.60;;;;;;;-5.37;100.00;101530.28;5114679;28;20031;-65
2023/12/05 01:21:57;;;;;;;22.48;13.82;;;;;;;-5.47;100.00;101518.47;5112930;28;20027;-63
2023/12/05 01:24:22;;;;;;;22.93;13.30;;;;;;;-5.14;100.00;101570.34;5114297;28;20526;-63
2023/12/05 01:26:48;;;;;;;24.10;14.45;;;;;;;-5.09;100.00;101584.03;5112794;28;20054;-66
2023/12/05 01:29:14;;;;;;;24.03;15.00;;;;;;;-5.50;100.00;101502.94;5113127;28;20031;-65
2023/12/05 01:31:40;;;;;;;27.73;15.30;;;;;;;-5.42;100.00;101529.56;5114342;28;20552;-63
2023/12/05 01:34:06;;;;;;;27.73;14.27;;;;;;;-5.73;100.00;101493.22;5096095;28;20040;-68
2023/12/05 01:36:32;;;;;;;26.88;15.77;;;;;;;-5.65;100.00;101498.19;5114204;27;20399;-65
2023/12/05 01:38:58;;;;;;;28.03;14.20;;;;;;;-5.11;100.00;101586.69;5112825;28;20032;-63
2023/12/05 01:41:23;;;;;;;26.23;16.33;;;;;;;-5.22;100.00;101561.91;5113713;28;20129;-64
2023/12/05 01:43:49;;;;;;;24.37;14.37;;;;;;;-5.23;100.00;101563.63;5112825;28;20050;-66
2023/12/05 01:46:16;;;;;;;29.13;14.33;;;;;;;-5.50;100.00;101512.47;5112797;28;20043;-65
2023/12/05 01:48:42;;;;;;;28.58;14.05;;;;;;;-5.09;100.00;101578.84;5095507;28;20138;-65
2023/12/05 01:51:09;;;;;;;24.42;12.48;;;;;;;-5.19;100.00;101569.63;5112645;28;20035;-65
2023/12/05 01:53:39;;;;;;;23.98;13.25;;;;;;;-5.09;100.00;101586.66;5112334;28;20156;-66
2023/12/05 01:56:07;;;;;;;23.25;11.85;;;;;;;-5.54;100.00;101511.72;5113543;27;20044;-64
2023/12/05 01:58:34;;;;;;;21.65;10.90;;;;;;;-5.14;100.00;101591.97;5113782;28;20036;-65
2023/12/05 02:01:01;;;;;;;23.80;12.35;;;;;;;-5.36;100.00;101565.75;5112461;28;20040;-66
2023/12/05 02:03:29;;;;;;;23.65;12.85;;;;;;;-5.26;100.00;101573.25;5112130;28;20213;-64
2023/12/05 02:05:57;;;;;;;23.17;12.30;;;;;;;-5.45;100.00;101563.41;5113421;28;20047;-66
2023/12/05 02:08:27;;;;;;;24.73;14.35;;;;;;;-5.34;100.00;101576.09;5111986;28;20035;-65
2023/12/05 02:10:53;;;;;;;25.13;14.07;;;;;;;-5.35;100.00;101570.03;5095864;28;20043;-65
2023/12/05 02:13:18;;;;;;;23.93;14.40;;;;;;;-5.24;100.00;101605.22;5113446;28;20061;-66
2023/12/05 02:15:50;;;;;;;25.73;13.60;;;;;;;-5.39;100.00;101573.63;5095605;28;20274;-69
2023/12/05 02:18:21;;;;;;;29.55;14.55;;;;;;;-5.22;100.00;101599.09;5095387;28;20113;-63
2023/12/05 02:20:47;;;;;;;27.50;14.68;;;;;;;-5.28;100.00;101580.25;5112004;28;20386;-65
2023/12/05 02:23:36;;;;;;;26.93;14.77;;;;;;;-5.16;100.00;101611.94;5111773;28;20028;-65
2023/12/05 02:26:18;;;;;;;27.83;14.68;;;;;;;-5.10;100.00;101605.72;5113080;28;20572;-67
2023/12/05 02:28:43;;;;;;;21.88;13.02;;;;;;;-5.32;100.00;101562.16;5112907;28;20039;-64
2023/12/05 02:31:09;;;;;;;26.10;14.93;;;;;;;-5.34;100.00;101558.75;5111694;28;20138;-66
2023/12/05 02:33:35;;;;;;;27.90;14.53;;;;;;;-5.14;100.00;101604.09;5112880;28;20035;-63
2023/12/05 02:36:15;;;;;;;28.35;15.43;;;;;;;-5.27;100.00;101581.94;5111788;28;20093;-64
2023/12/05 02:38:54;;;;;;;28.13;14.52;;;;;;;-5.27;100.00;101579.34;5094722;28;20530;-64
2023/12/05 02:41:24;;;;;;;28.40;16.15;;;;;;;-5.12;100.00;101594.53;5111655;28;20394;-64
2023/12/05 02:43:58;;;;;;;29.88;14.20;;;;;;;-5.24;100.00;101555.91;5111500;28;20043;-65
2023/12/05 02:46:25;;;;;;;23.70;12.27;;;;;;;-5.07;100.00;101598.69;5113038;27;20034;-64
2023/12/05 02:48:52;;;;;;;28.40;16.30;;;;;;;-5.20;100.00;101583.50;5094755;28;20035;-64
2023/12/05 02:51:17;;;;;;;32.35;14.82;;;;;;;-5.20;100.00;101578.31;5112730;28;20035;-67
2023/12/05 02:53:43;;;;;;;31.07;15.97;;;;;;;-6.08;100.00;101442.31;5112674;28;20043;-65
2023/12/05 02:56:09;;;;;;;34.30;16.60;;;;;;;-4.97;100.00;101612.25;5111601;28;20670;-66
2023/12/05 02:58:35;;;;;;;30.00;16.60;;;;;;;-4.85;100.00;101627.53;5112776;28;20513;-62
2023/12/05 03:01:02;;;;;;;27.07;14.73;;;;;;;-5.31;100.00;101547.44;5094082;28;20043;-64
2023/12/05 03:03:27;;;;;;;28.02;16.23;;;;;;;-5.35;100.00;101554.47;5110852;28;20418;-65
2023/12/05 03:05:53;;;;;;;34.07;17.50;;;;;;;-5.18;100.00;101582.56;5093970;28;20071;-64
2023/12/05 03:08:19;;;;;;;30.73;16.73;;;;;;;-5.21;100.00;101590.41;5111092;28;20043;-66
2023/12/05 03:10:44;;;;;;;30.07;15.23;;;;;;;-5.88;100.00;101491.03;5111073;28;20063;-65
2023/12/05 03:13:10;;;;;;;30.53;18.10;;;;;;;-5.23;100.00;101614.72;5110716;28;20031;-64
2023/12/05 03:15:35;;;;;;;31.50;15.60;;;;;;;-5.12;100.00;101633.47;5110941;28;20490;-65
2023/12/05 03:18:01;;;;;;;36.27;18.50;;;;;;;-5.20;100.00;101599.09;5094123;28;20032;-65
2023/12/05 03:20:27;;;;;;;28.67;15.53;;;;;;;-5.48;100.00;101552.25;5111082;28;20038;-66
2023/12/05 03:22:52;;;;;;;33.40;16.97;;;;;;;-5.27;100.00;101587.16;5110919;28;20110;-64
2023/12/05 03:25:18;;;;;;;30.80;15.00;;;;;;;-5.56;100.00;101536.88;5112547;28;20041;-64
2023/12/05 03:27:44;;;;;;;27.37;15.33;;;;;;;-5.35;100.00;101549.25;5110859;28;20605;-65
2023/12/05 03:30:10;;;;;;;33.67;18.37;;;;;;;-5.11;100.00;101586.69;5111975;28;20040;-66
2023/12/05 03:32:36;;;;;;;32.60;17.80;;;;;;;-5.14;100.00;101572.94;5110993;28;20087;-65
2023/12/05 03:35:01;;;;;;;28.93;15.33;;;;;;;-5.08;100.00;101601.34;5112020;28;20036;-64
2023/12/05 03:37:29;;;;;;;36.22;15.82;;;;;;;-5.11;100.00;101588.44;5094269;28;20051;-65
2023/12/05 03:39:55;;;;;;;27.77;15.97;;;;;;;-5.00;100.00;101594.16;5111194;28;20120;-66
2023/12/05 03:42:21;;;;;;;44.13;21.13;;;;;;;-4.90;100.00;101600.81;5116358;28;20160;-67
2023/12/05 03:44:46;;;;;;;35.70;19.03;;;;;;;-4.84;100.00;101597.19;5115222;28;20039;-66
2023/12/05 03:47:12;;;;;;;30.17;16.60;;;;;;;-5.11;100.00;101568.50;5115346;28;20059;-65
2023/12/05 03:49:38;;;;;;;30.47;16.30;;;;;;;-4.79;100.00;101623.88;5116628;28;20036;-66
2023/12/05 03:52:04;;;;;;;29.73;16.23;;;;;;;-4.78;100.00;101621.25;5116004;28;20056;-65
2023/12/05 03:54:29;;;;;;;37.15;18.77;;;;;;;-4.85;100.00;101608.47;5115903;27;20039;-65
2023/12/05 03:56:55;;;;;;;37.10;17.97;;;;;;;-5.15;100.00;101561.69;5116047;28;20040;-64
2023/12/05 03:59:20;;;;;;;41.33;20.27;;;;;;;-4.93;100.00;101595.69;5115258;28;20032;-64
2023/12/05 04:01:46;;;;;;;33.80;17.63;;;;;;;-5.06;100.00;101569.22;5097714;28;20490;-64
2023/12/05 04:04:13;;;;;;;33.35;16.63;;;;;;;-4.90;100.00;101595.63;5114295;28;20055;-65
2023/12/05 04:06:38;;;;;;;32.30;15.90;;;;;;;-4.77;100.00;101622.09;5115359;28;20059;-66
2023/12/05 04:09:04;;;;;;;32.33;17.43;;;;;;;-4.90;100.00;101595.63;5114195;28;20112;-65
2023/12/05 04:11:32;;;;;;;36.47;17.75;;;;;;;-5.42;100.00;101520.94;5114712;28;20031;-65
2023/12/05 04:13:59;;;;;;;33.25;16.98;;;;;;;-4.81;100.00;101631.72;5113931;28;20050;-68
2023/12/05 04:16:25;;;;;;;37.05;16.58;;;;;;;-4.63;100.00;101665.88;5114007;28;20050;-68
2023/12/05 04:18:51;;;;;;;32.60;16.50;;;;;;;-4.66;100.00;101664.22;5114897;28;20035;-66
2023/12/05 04:21:20;;;;;;;34.55;16.42;;;;;;;-5.05;100.00;101614.22;5113611;28;20047;-68
2023/12/05 04:23:46;;;;;;;35.10;18.10;;;;;;;-4.84;100.00;101662.16;5113600;28;20042;-64
2023/12/05 04:26:18;;;;;;;29.23;16.88;;;;;;;-4.94;100.00;101653.75;5114427;28;20036;-66
2023/12/05 04:28:44;;;;;;;35.65;16.20;;;;;;;-4.93;100.00;101655.44;5095361;28;20164;-66
2023/12/05 04:31:14;;;;;;;33.40;16.92;;;;;;;-5.07;100.00;101634.19;5113147;28;20130;-65
2023/12/05 04:33:40;;;;;;;31.10;15.60;;;;;;;-4.92;100.00;101667.53;5114752;28;20046;-63
2023/12/05 04:36:07;;;;;;;33.88;17.20;;;;;;;-5.34;100.00;101608.09;5114661;28;20096;-64
2023/12/05 04:38:35;;;;;;;29.30;18.27;;;;;;;-5.01;100.00;101649.63;5091470;28;20036;-68
2023/12/05 04:41:01;;;;;;;29.88;15.25;;;;;;;-5.12;100.00;101644.72;5114656;27;20439;-65
2023/12/05 04:43:26;;;;;;;35.57;17.97;;;;;;;-5.46;100.00;101582.47;5114663;28;20047;-70
2023/12/05 04:45:52;;;;;;;34.50;17.27;;;;;;;-5.14;100.00;101650.84;5113345;28;20142;-67
2023/12/05 04:48:18;;;;;;;33.90;15.47;;;;;;;-5.80;100.00;101547.88;5093913;28;20032;-70
2023/12/05 04:50:44;;;;;;;28.07;14.67;;;;;;;-5.76;100.00;101576.34;5113408;28;20028;-67
2023/12/05 04:53:09;;;;;;;27.07;15.13;;;;;;;-5.40;100.00;101626.44;5112729;28;20023;-69
2023/12/05 04:55:35;;;;;;;32.30;16.70;;;;;;;-5.15;100.00;101673.38;5114227;28;20076;-65
2023/12/05 04:58:01;;;;;;;27.10;14.10;;;;;;;-5.15;100.00;101672.53;5096284;28;20544;-69
2023/12/05 05:00:27;;;;;;;27.23;14.27;;;;;;;-5.13;100.00;101669.00;5113092;28;20109;-66
2023/12/05 05:02:55;;;;;;;26.07;13.80;;;;;;;-5.14;100.00;101650.84;5111752;28;20030;-70
2023/12/05 05:05:21;;;;;;;29.10;14.60;;;;;;;-5.27;100.00;101626.09;5114863;27;20032;-66
2023/12/05 05:07:46;;;;;;;34.50;19.13;;;;;;;-5.28;100.00;101630.44;5113212;28;20081;-66
2023/12/05 05:10:13;;;;;;;32.40;16.20;;;;;;;-5.22;100.00;101647.59;5113100;28;20453;-64
2023/12/05 05:12:39;;;;;;;34.90;18.42;;;;;;;-4.90;100.00;101696.09;5113760;28;20047;-67
2023/12/05 05:15:05;;;;;;;37.07;18.50;;;;;;;-5.06;100.00;101667.94;5095264;28;20031;-65
2023/12/05 05:17:31;;;;;;;34.65;16.75;;;;;;;-4.98;100.00;101693.69;5114138;27;20032;-64
2023/12/05 05:19:56;;;;;;;40.53;17.60;;;;;;;-5.24;100.00;101649.38;5114338;28;20571;-62
2023/12/05 05:22:22;;;;;;;34.63;15.73;;;;;;;-4.90;100.00;101702.16;5112497;28;20158;-65
2023/12/05 05:24:48;;;;;;;29.57;15.60;;;;;;;-5.38;100.00;101618.59;5113718;28;20455;-66
2023/12/05 05:27:14;;;;;;;30.67;15.93;;;;;;;-5.21;100.00;101649.28;5113925;28;20498;-69
2023/12/05 05:29:39;;;;;;;26.53;13.37;;;;;;;-5.13;100.00;101669.00;5113617;28;20046;-65
2023/12/05 05:32:05;;;;;;;34.33;16.50;;;;;;;-4.96;100.00;101702.28;5113871;28;20079;-62
2023/12/05 05:34:31;;;;;;;30.53;16.87;;;;;;;-5.02;100.00;101692.06;5114230;28;20486;-62
2023/12/05 05:36:56;;;;;;;31.00;15.80;;;;;;;-4.97;100.00;101708.38;5114376;28;20065;-65
2023/12/05 05:39:22;;;;;;;29.73;15.67;;;;;;;-4.86;100.00;101728.91;5115461;28;20035;-64
2023/12/05 05:41:48;;;;;;;32.13;16.93;;;;;;;-5.04;100.00;101693.84;5115046;28;20038;-68
2023/12/05 05:44:13;;;;;;;32.17;16.30;;;;;;;-5.08;100.00;101679.25;5113865;27;20032;-66
2023/12/05 05:46:39;;;;;;;34.70;15.70;;;;;;;-5.00;100.00;101701.53;5113753;28;20383;-64
2023/12/05 05:49:04;;;;;;;39.73;18.67;;;;;;;-5.12;100.00;101682.84;5113782;28;20035;-65
2023/12/05 05:51:30;;;;;;;36.57;17.73;;;;;;;-5.11;100.00;101685.38;5113560;28;20062;-66
2023/12/05 05:53:58;;;;;;;37.70;19.30;;;;;;;-4.85;100.00;101747.03;5113165;28;20422;-67
2023/12/05 05:56:23;;;;;;;38.85;17.50;;;;;;;-5.18;100.00;101691.63;5110145;28;20176;-65
2023/12/05 05:58:49;;;;;;;41.67;19.10;;;;;;;-4.85;100.00;101747.03;5112968;28;20123;-67
2023/12/05 06:01:15;;;;;;;38.87;17.63;;;;;;;-5.04;100.00;101725.03;5095628;28;20032;-66
2023/12/05 06:03:44;;;;;;;38.40;17.97;;;;;;;-4.92;100.00;101744.63;5113438;28;20056;-65
2023/12/05 06:06:10;;;;;;;39.90;18.73;;;;;;;-4.97;100.00;101736.09;5113812;28;20098;-66
2023/12/05 06:08:36;;;;;;;34.70;18.73;;;;;;;-5.14;100.00;101723.56;5112576;28;20273;-66
2023/12/05 06:11:01;;;;;;;32.33;16.07;;;;;;;-4.96;100.00;101764.63;5112805;28;20057;-65
2023/12/05 06:13:27;;;;;;;28.87;15.93;;;;;;;-5.39;100.00;101699.97;5113916;28;20043;-69
2023/12/05 06:15:53;;;;;;;27.93;15.03;;;;;;;-5.08;100.00;101755.44;5113824;28;20031;-68
2023/12/05 06:18:18;;;;;;;32.37;16.47;;;;;;;-4.99;100.00;101769.91;5113065;28;20505;-66
2023/12/05 06:20:44;;;;;;;31.00;16.97;;;;;;;-5.10;100.00;101771.94;5114690;28;20067;-67
2023/12/05 06:23:10;;;;;;;28.47;15.07;;;;;;;-5.37;100.00;101730.19;5115546;28;20503;-68
2023/12/05 06:25:36;;;;;;;31.02;18.00;;;;;;;-5.37;100.00;101737.13;5112753;28;20098;-69
2023/12/05 06:28:02;;;;;;;32.63;17.23;;;;;;;-5.26;100.00;101765.41;5091783;28;20040;-65
2023/12/05 06:30:28;;;;;;;35.23;16.50;;;;;;;-5.18;100.00;101789.47;5106391;28;20038;-66
2023/12/05 06:32:53;;;;;;;31.37;14.87;;;;;;;-5.33;100.00;101768.16;5113562;28;20039;-64
2023/12/05 06:35:19;;;;;;;29.43;15.93;;;;;;;-5.37;100.00;101761.34;5112469;28;20031;-69
2023/12/05 06:37:45;;;;;;;30.20;14.90;;;;;;;-5.32;100.00;101784.59;5113078;28;20035;-67
2023/12/05 06:40:10;;;;;;;28.27;14.33;;;;;;;-5.42;100.00;101789.16;5111379;28;20031;-68
2023/12/05 06:42:37;;;;;;;26.80;13.87;;;;;;;-5.33;100.00;101801.06;5094592;28;20456;-66
2023/12/05 06:45:03;;;;;;;32.88;16.13;;;;;;;-5.37;100.00;101792.50;5111121;28;20745;-65
2023/12/05 06:47:31;;;;;;;30.90;15.82;;;;;;;-5.17;100.00;101815.41;5112369;28;20120;-67
2023/12/05 06:50:01;;;;;;;27.30;14.53;;;;;;;-5.37;100.00;101771.72;5112095;28;20051;-64
2023/12/05 06:52:29;;;;;;;28.13;14.30;;;;;;;-5.48;100.00;101739.16;5112580;28;20127;-66
2023/12/05 06:54:54;;;;;;;24.20;13.60;;;;;;;-5.31;100.00;101768.97;5112256;28;20128;-66
2023/12/05 06:57:20;;;;;;;32.40;15.20;;;;;;;-5.23;100.00;101783.50;5111008;28;20028;-64
2023/12/05 06:59:45;;;;;;;32.10;14.97;;;;;;;-5.39;100.00;101754.50;5111415;28;20031;-65
2023/12/05 07:02:11;;;;;;;32.00;15.43;;;;;;;-5.27;100.00;101780.13;5112072;28;20482;-64
2023/12/05 07:04:38;;;;;;;28.43;15.50;;;;;;;-5.52;100.00;101733.16;5092864;28;20091;-68
2023/12/05 07:07:04;;;;;;;25.98;13.88;;;;;;;-5.46;100.00;101747.75;5112354;28;20048;-66
2023/12/05 07:09:32;;;;;;;29.45;15.60;;;;;;;-5.24;100.00;101781.81;5094759;28;20039;-66
2023/12/05 07:11:58;;;;;;;20.38;10.57;;;;;;;-5.00;100.00;101814.97;5114629;28;20048;-65
2023/12/05 07:14:24;;;;;;;20.67;11.23;;;;;;;-5.20;100.00;101778.28;5113293;28;20536;-66
2023/12/05 07:16:49;;;;;;;20.43;12.47;;;;;;;-5.12;100.00;101794.50;5112744;28;20410;-66
2023/12/05 07:19:15;;;;;;;24.47;14.70;;;;;;;-4.94;100.00;101814.81;5114003;28;20081;-66
2023/12/05 07:21:40;;;;;;;25.60;12.97;;;;;;;-5.08;100.00;101801.34;5114819;28;20553;-67
2023/12/05 07:24:06;;;;;;;24.27;12.77;;;;;;;-5.18;100.00;101787.72;5113053;28;20076;-68
2023/12/05 07:26:32;;;;;;;30.10;15.37;;;;;;;-5.04;100.00;101809.00;5112298;28;20039;-67
2023/12/05 07:28:58;;;;;;;26.33;15.73;;;;;;;-4.96;100.00;101821.78;5110376;28;20066;-65
2023/12/05 07:31:24;;;;;;;27.73;14.13;;;;;;;-4.88;100.00;101832.88;5111404;28;20123;-68
2023/12/05 07:33:49;;;;;;;28.93;13.57;;;;;;;-4.82;100.00;101822.31;5108825;28;20047;-64
2023/12/05 07:36:15;;;;;;;27.80;14.47;;;;;;;-4.86;100.00;101799.91;5110624;28;20036;-66
2023/12/05 07:38:41;;;;;;;27.70;15.13;;;;;;;-4.78;100.00;101820.50;5110006;28;20035;-67
2023/12/05 07:41:16;;;;;;;27.70;14.80;;;;;;;-4.90;100.00;101813.03;5111291;28;20023;-66
2023/12/05 07:43:42;;;;;;;26.33;12.90;;;;;;;-4.93;100.00;101826.91;5124564;28;20043;-69
2023/12/05 07:46:07;;;;;;;28.10;13.97;;;;;;;-4.97;100.00;101804.50;5114031;28;20039;-66
2023/12/05 07:48:33;;;;;;;23.33;13.80;;;;;;;-4.60;100.00;101853.81;5110194;28;20035;-67
2023/12/05 07:50:59;;;;;;;24.10;12.60;;;;;;;-4.96;100.00;101775.03;5111277;28;20032;-67
2023/12/05 07:53:24;;;;;;;16.27;10.47;;;;;;;-4.53;100.00;101846.72;5110535;28;20050;-68
2023/12/05 07:55:50;;;;;;;22.97;13.27;;;;;;;-5.02;100.00;101773.44;5108482;28;20031;-68
2023/12/05 07:58:18;;;;;;;26.30;12.73;;;;;;;-4.57;100.00;101856.34;5110914;28;20032;-66
2023/12/05 08:00:44;;;;;;;30.75;14.23;;;;;;;-5.01;100.00;101787.28;5132188;28;20040;-67
2023/12/05 08:03:13;;;;;;;27.87;15.03;;;;;;;-4.85;100.00;101819.81;5118593;28;20038;-67
2023/12/05 08:05:40;;;;;;;30.67;14.27;;;;;;;-4.69;100.00;101860.09;5110808;28;20392;-67
2023/12/05 08:08:05;;;;;;;40.85;19.23;;;;;;;-5.13;100.00;101801.44;5109957;28;20040;-65
2023/12/05 08:10:31;;;;;;;45.43;19.87;;;;;;;-5.08;100.00;101814.31;5109512;28;20035;-67
2023/12/05 08:12:56;;;;;;;45.47;18.13;;;;;;;-4.78;100.00;101867.28;5111855;28;20163;-65
2023/12/05 08:15:22;;;;;;;34.90;17.83;;;;;;;-4.88;100.00;101858.00;5119057;28;20159;-64
2023/12/05 08:17:48;;;;;;;45.20;18.43;;;;;;;-4.84;100.00;101870.03;5119361;28;20032;-70
2023/12/05 08:20:13;;;;;;;32.80;15.43;;;;;;;-4.81;100.00;101882.94;5119061;28;20089;-66
2023/12/05 08:22:40;;;;;;;42.93;17.70;;;;;;;-4.78;100.00;101886.31;5119314;28;20027;-67
2023/12/05 08:25:08;;;;;;;42.45;19.92;;;;;;;-4.97;100.00;101848.66;5118331;28;20032;-66
2023/12/05 08:27:34;;;;;;;37.95;17.98;;;;;;;-5.02;100.00;101834.94;5121346;28;20035;-66
2023/12/05 08:30:02;;;;;;;35.27;17.03;;;;;;;-5.24;100.00;101800.84;5120698;28;20046;-67
2023/12/05 08:32:33;;;;;;;31.85;16.55;;;;;;;-4.82;100.00;101884.69;5117377;28;20035;-62
2023/12/05 08:34:58;;;;;;;34.25;16.27;;;;;;;-5.04;100.00;101853.16;5125429;28;20488;-65
2023/12/05 08:37:24;;;;;;;35.20;19.00;;;;;;;-4.86;100.00;101885.66;5122838;28;20035;-63
2023/12/05 08:39:50;;;;;;;34.13;16.53;;;;;;;-4.81;100.00;101889.00;5121954;28;20035;-64
2023/12/05 08:42:15;;;;;;;28.83;15.83;;;;;;;-5.02;100.00;101860.91;5120020;28;20035;-67
2023/12/05 08:44:42;;;;;;;38.70;15.30;;;;;;;-4.87;100.00;101889.16;5097354;28;20036;-69
2023/12/05 08:47:08;;;;;;;30.08;16.33;;;;;;;-4.86;100.00;101901.25;5114190;28;20055;-65
2023/12/05 08:49:33;;;;;;;26.93;14.53;;;;;;;-5.00;100.00;101882.53;5115266;28;20094;-67
2023/12/05 08:51:59;;;;;;;29.60;14.10;;;;;;;-5.42;100.00;101820.31;5115074;28;20465;-67
2023/12/05 08:54:24;;;;;;;29.83;15.50;;;;;;;-5.24;100.00;101864.91;5096129;28;20043;-67
2023/12/05 08:56:50;;;;;;;31.27;15.83;;;;;;;-5.20;100.00;101879.56;5114930;28;20089;-66
2023/12/05 08:59:16;;;;;;;29.63;14.50;;;;;;;-5.21;100.00;101896.00;5113466;28;20046;-66
2023/12/05 09:01:46;;;;;;;30.10;16.07;;;;;;;-5.23;100.00;101890.84;5114827;28;20043;-67
2023/12/05 09:04:12;;;;;;;24.98;13.60;;;;;;;-5.09;100.00;101908.72;5112433;28;20138;-67
2023/12/05 09:06:38;;;;;;;25.15;13.48;;;;;;;-5.06;100.00;101903.44;5114594;28;20044;-67
2023/12/05 09:09:04;;;;;;;31.25;15.13;;;;;;;-5.18;100.00;101893.34;5114383;28;20044;-65
2023/12/05 09:11:30;;;;;;;24.60;14.10;;;;;;;-5.09;100.00;101908.72;5114146;28;20055;-66
2023/12/05 09:13:55;;;;;;;28.45;14.68;;;;;;;-5.16;100.00;101896.78;5112831;28;20027;-65
2023/12/05 09:16:21;;;;;;;28.53;14.57;;;;;;;-5.02;100.00;101923.25;5114017;28;20042;-66
2023/12/05 09:18:47;;;;;;;33.80;15.10;;;;;;;-5.09;100.00;101906.13;5113948;28;20036;-67
2023/12/05 09:21:12;;;;;;;32.47;16.70;;;;;;;-5.14;100.00;101895.00;5114671;28;20051;-68
2023/12/05 09:23:38;;;;;;;34.07;17.27;;;;;;;-5.16;100.00;101899.38;5114729;28;20036;-65
2023/12/05 09:26:04;;;;;;;34.30;17.35;;;;;;;-5.01;100.00;101923.22;5114054;28;20061;-67
2023/12/05 09:28:32;;;;;;;32.97;16.53;;;;;;;-5.01;100.00;101917.19;5112493;28;20035;-68
2023/12/05 09:30:58;;;;;;;30.02;16.48;;;;;;;-5.04;100.00;101912.06;5112582;28;20048;-66
2023/12/05 09:33:23;;;;;;;30.07;17.47;;;;;;;-4.87;100.00;101930.72;5112405;28;20155;-65
2023/12/05 09:35:49;;;;;;;36.03;15.97;;;;;;;-4.87;100.00;101932.47;5113271;28;20036;-66
2023/12/05 09:38:14;;;;;;;27.63;14.87;;;;;;;-4.77;100.00;101932.19;5112630;28;20032;-66
2023/12/05 09:40:40;;;;;;;31.20;16.27;;;;;;;-4.82;100.00;101918.47;5113990;28;20027;-65
2023/12/05 09:43:08;;;;;;;34.27;15.60;;;;;;;-4.72;100.00;101930.34;5111981;28;20038;-65
2023/12/05 09:45:42;;;;;;;26.50;14.00;;;;;;;-4.84;100.00;101911.59;5113717;28;20126;-68
2023/12/05 09:48:11;;;;;;;28.90;14.45;;;;;;;-4.79;100.00;101927.94;5108807;28;20043;-65
2023/12/05 09:50:37;;;;;;;27.92;15.77;;;;;;;-4.75;100.00;101940.81;5112521;28;20043;-69
2023/12/05 09:53:09;;;;;;;26.90;13.77;;;;;;;-4.89;100.00;101901.31;5112090;28;20131;-68
2023/12/05 09:55:35;;;;;;;25.10;12.88;;;;;;;-4.77;100.00;101927.00;5104833;28;20039;-67
2023/12/05 09:58:02;;;;;;;34.57;16.00;;;;;;;-4.71;100.00;101950.25;5112329;28;20035;-66
2023/12/05 10:00:28;;;;;;;24.98;12.90;;;;;;;-4.80;100.00;101932.28;5113342;28;20063;-68
2023/12/05 10:02:56;;;;;;;25.52;13.77;;;;;;;-4.77;100.00;101958.19;5113090;27;20038;-65
2023/12/05 10:05:24;;;;;;;23.33;12.23;;;;;;;-4.85;100.00;101926.34;5113122;28;20384;-65
2023/12/05 10:07:50;;;;;;;27.38;15.00;;;;;;;-4.85;100.00;101934.13;5112993;28;20092;-63
2023/12/05 10:10:19;;;;;;;23.33;12.00;;;;;;;-5.18;100.00;101899.41;5112691;28;20126;-67
2023/12/05 10:12:46;;;;;;;22.42;12.75;;;;;;;-5.00;100.00;101935.31;5113222;28;20036;-66
2023/12/05 10:15:12;;;;;;;23.52;13.93;;;;;;;-4.92;100.00;101936.88;5113158;28;20094;-66
2023/12/05 10:17:38;;;;;;;25.33;12.90;;;;;;;-5.04;100.00;101917.25;5112747;28;20526;-65
2023/12/05 10:20:05;;;;;;;25.08;13.73;;;;;;;-4.80;100.00;101942.66;5112697;28;20028;-63
2023/12/05 10:22:31;;;;;;;25.45;13.10;;;;;;;-4.87;100.00;101933.31;5111385;28;20531;-65
2023/12/05 10:24:57;;;;;;;22.17;11.68;;;;;;;-4.83;100.00;101962.69;5115307;28;20064;-64
2023/12/05 10:27:22;;;;;;;21.20;12.30;;;;;;;-4.93;100.00;101956.81;5117921;28;20158;-63
2023/12/05 10:29:48;;;;;;;23.13;13.13;;;;;;;-4.83;100.00;101962.69;5112718;28;20031;-66
2023/12/05 10:32:14;;;;;;;25.60;14.37;;;;;;;-4.91;100.00;101951.63;5112225;28;20043;-61
2023/12/05 10:34:47;;;;;;;23.97;11.77;;;;;;;-4.83;100.00;101968.72;5113713;28;20451;-65
2023/12/05 10:37:12;;;;;;;19.92;11.82;;;;;;;-4.86;99.78;101970.56;5117607;28;20158;-65
2023/12/05 10:39:38;;;;;;;21.70;11.80;;;;;;;-5.09;99.89;101937.28;5123890;28;20063;-63
2023/12/05 10:42:04;;;;;;;26.73;13.13;;;;;;;-5.15;100.00;101930.50;5125455;28;20036;-64
2023/12/05 10:44:39;;;;;;;19.67;12.03;;;;;;;-4.81;100.00;101971.28;5124383;28;20044;-65
2023/12/05 10:47:06;;;;;;;19.45;11.40;;;;;;;-4.77;99.95;101976.38;5113999;28;20028;-67
2023/12/05 10:49:34;;;;;;;21.55;12.02;;;;;;;-4.82;99.68;101967.00;5117232;28;20111;-64
2023/12/05 10:52:05;;;;;;;21.02;11.82;;;;;;;-5.01;98.61;101933.63;5118304;28;20043;-65
2023/12/05 10:54:30;;;;;;;19.10;11.02;;;;;;;-4.96;98.04;101964.69;5102756;28;20043;-66
2023/12/05 10:56:59;;;;;;;21.17;11.90;;;;;;;-4.84;99.47;101993.00;5123611;28;20031;-65
2023/12/05 10:59:27;;;;;;;21.17;10.50;;;;;;;-4.82;98.24;101979.97;5126096;28;20065;-67